Latham, Ohio
Current Conditions -  °F | °C
As of 4:54 PM on Monday 24 Nov 2014 (Local Time) from KRZT Reporting Station
Broken Clouds Broken Clouds  
Wind Chill: 39°   Ceiling: 4100
Heat Index: 46°   Visibility: 10mi
Dew Point: 32°   Wind: 20mph
Humidity: 57%   Direction: 260°W
Pressure: 29.72"   Gusts: 29mph
Location:  39.1°N, 83.25°W
Report Text: KRZT 242154Z AUTO 26017G25KT 10SM BKN041 08/00 A2972 RMK AO2
Loading
Personal Weather Stations






























Interactive Weather Map New forecast layout! Learn more

10-Day Weather Forecast

Advertisements
Track Severe Weather on mobile